Time;durP1;ratioP1;P1;durP2;ratioP2;P2;SDS_P1;SDS_P2;PMS_P1;PMS_P2;Temp;Humidity;BMP_temperature;BMP_pressure;BME280_temperature;BME280_humidity;BME280_pressure;Samples;Min_cycle;Max_cycle;Signal;HPM_P1;HPM_P2
2021/08/31 00:00:42;;;;;;;;;;;;;;;21.19;74.36;101006.13;1910778;75;20271;-74
2021/08/31 00:03:15;;;;;;;;;;;;;;;21.18;74.37;101004.47;1889294;76;20244;-70
2021/08/31 00:05:47;;;;;;;;;;;;;;;21.13;74.33;101011.09;1908297;75;20242;-74
2021/08/31 00:08:22;;;;;;;;;;;;;;;21.07;74.38;101014.37;1900385;75;20238;-75
2021/08/31 00:10:55;;;;;;;;;;;;;;;21.04;74.54;101008.78;1892292;75;20182;-74
2021/08/31 00:13:26;;;;;;;;;;;;;;;21.03;74.63;101015.59;1916001;75;20249;-73
2021/08/31 00:15:58;;;;;;;;;;;;;;;21.07;74.77;101023.69;1916074;75;20246;-72
2021/08/31 00:18:31;;;;;;;;;;;;;;;21.12;74.67;101028.36;1915300;74;20205;-72
2021/08/31 00:21:07;;;;;;;;;;;;;;;21.15;74.62;101029.96;1918767;74;20178;-72
2021/08/31 00:23:39;;;;;;;;;;;;;;;21.18;74.40;101039.22;1888128;75;20253;-73
2021/08/31 00:26:12;;;;;;;;;;;;;;;21.14;74.34;101044.41;1922426;75;20571;-74
2021/08/31 00:28:44;;;;;;;;;;;;;;;21.08;74.39;101042.89;1910188;74;20272;-74
2021/08/31 00:31:16;;;;;;;;;;;;;;;21.03;74.54;101035.95;1911552;75;20283;-73
2021/08/31 00:33:49;;;;;;;;;;;;;;;21.03;74.80;101043.83;1919360;74;20174;-74
2021/08/31 00:36:21;;;;;;;;;;;;;;;21.08;74.94;101051.37;1891963;76;20219;-73
2021/08/31 00:38:56;;;;;;;;;;;;;;;21.13;74.99;101052.62;1891999;76;20196;-72
2021/08/31 00:41:27;;;;;;;;;;;;;;;21.18;74.84;101056.17;1892005;76;20184;-73
2021/08/31 00:43:59;;;;;;;;;;;;;;;21.22;74.65;101061.41;1891965;76;20252;-74
2021/08/31 00:46:31;;;;;;;;;;;;;;;21.21;74.62;101054.70;1896261;75;20598;-73
2021/08/31 00:49:03;;;;;;;;;;;;;;;21.21;74.47;101050.45;1905367;75;20176;-75
2021/08/31 00:51:37;;;;;;;;;;;;;;;21.15;74.32;101050.33;1879496;75;20228;-73
2021/08/31 00:54:08;;;;;;;;;;;;;;;21.06;74.39;101057.33;1857315;77;20234;-74
2021/08/31 00:56:41;;;;;;;;;;;;;;;20.98;74.50;101056.66;1878360;75;20258;-74
2021/08/31 00:59:13;;;;;;;;;;;;;;;20.93;74.66;101055.97;1922279;75;20169;-73
2021/08/31 01:01:48;;;;;;;;;;;;;;;20.91;74.80;101053.46;1917207;75;20207;-74
2021/08/31 01:04:22;;;;;;;;;;;;;;;20.92;74.83;101065.60;1907465;75;20242;-74
2021/08/31 01:06:54;;;;;;;;;;;;;;;20.91;74.80;101065.35;1912966;75;20168;-73
2021/08/31 01:09:28;;;;;;;;;;;;;;;20.91;74.84;101063.94;1861573;76;20246;-75
2021/08/31 01:12:01;;;;;;;;;;;;;;;20.89;74.74;101069.05;1857359;77;20246;-75
2021/08/31 01:14:33;;;;;;;;;;;;;;;20.82;74.81;101071.45;1914175;75;20245;-71
2021/08/31 01:17:05;;;;;;;;;;;;;;;20.79;75.00;101072.11;1922097;75;20273;-71
2021/08/31 01:19:38;;;;;;;;;;;;;;;20.77;74.91;101068.75;1909136;75;20283;-71
2021/08/31 01:22:11;;;;;;;;;;;;;;;20.75;74.91;101073.33;1880649;76;20251;-74
2021/08/31 01:24:45;;;;;;;;;;;;;;;20.78;74.96;101077.50;1909336;75;20607;-74
2021/08/31 01:27:17;;;;;;;;;;;;;;;20.81;74.91;101075.44;1916268;75;20250;-73
2021/08/31 01:29:50;;;;;;;;;;;;;;;20.81;74.88;101077.70;1916386;75;20251;-75
2021/08/31 01:32:22;;;;;;;;;;;;;;;20.74;74.98;101075.89;1889279;75;20609;-71
2021/08/31 01:34:54;;;;;;;;;;;;;;;20.71;75.12;101078.48;1867816;76;20236;-73
2021/08/31 01:37:26;;;;;;;;;;;;;;;20.71;75.39;101074.26;1822137;74;20248;-74
2021/08/31 01:39:59;;;;;;;;;;;;;;;20.74;75.34;101073.64;1777379;80;20245;-75
2021/08/31 01:42:32;;;;;;;;;;;;;;;20.76;75.40;101076.96;1774352;81;20245;-75
2021/08/31 01:45:04;;;;;;;;;;;;;;;;;;1777437;80;20249;-76
2021/08/31 01:47:35;;;;;;;;;;;;;;;20.81;75.32;101079.11;1803455;79;20656;-76
2021/08/31 01:50:08;;;;;;;;;;;;;;;20.82;75.29;101075.13;1807824;78;20247;-76
2021/08/31 01:52:40;;;;;;;;;;;;;;;20.81;75.16;101077.70;1788316;78;20185;-76
2021/08/31 01:55:12;;;;;;;;;;;;;;;20.77;75.20;101074.39;1794091;79;20268;-75
2021/08/31 01:57:44;;;;;;;;;;;;;;;20.75;75.27;101076.15;1807697;79;20251;-75
2021/08/31 02:00:16;;;;;;;;;;;;;;;20.74;75.32;101075.89;1807695;79;20601;-75
2021/08/31 02:02:48;;;;;;;;;;;;;;;20.76;75.46;101081.20;1807624;79;20283;-77
2021/08/31 02:05:21;;;;;;;;;;;;;;;20.75;75.48;101079.53;1809331;79;20251;-77
2021/08/31 02:07:54;;;;;;;;;;;;;;;20.80;75.46;101082.24;1809315;79;20601;-78
2021/08/31 02:10:27;;;;;;;;;;;;;;;20.82;75.40;101081.34;1807925;78;20351;-77
2021/08/31 02:12:59;;;;;;;;;;;;;;;20.82;75.22;101076.54;1791923;79;20215;-77
2021/08/31 02:15:31;;;;;;;;;;;;;;;20.82;75.37;101094.04;1809423;79;20287;-77
2021/08/31 02:18:03;;;;;;;;;;;;;;;;;;1809429;79;20231;-75
2021/08/31 02:20:35;;;;;;;;;;;;;;;20.76;75.39;101091.08;1809291;79;20258;-74
2021/08/31 02:23:07;;;;;;;;;;;;;;;20.72;75.49;101084.42;1807929;79;20623;-74
2021/08/31 02:25:39;;;;;;;;;;;;;;;20.76;75.54;101082.61;1806552;79;20620;-75
2021/08/31 02:28:11;;;;;;;;;;;;;;;20.82;75.40;101083.59;1807688;79;20636;-73
2021/08/31 02:30:43;;;;;;;;;;;;;;;20.84;75.20;101082.69;1807855;79;20584;-75
2021/08/31 02:33:15;;;;;;;;;;;;;;;20.83;75.18;101081.59;1809452;78;20199;-76
2021/08/31 02:35:47;;;;;;;;;;;;;;;20.83;75.14;101082.44;1808734;79;20195;-75
2021/08/31 02:38:19;;;;;;;;;;;;;;;20.81;75.09;101081.08;1797003;78;20223;-76
2021/08/31 02:40:51;;;;;;;;;;;;;;;20.75;75.11;101083.20;1814005;74;20225;-73
2021/08/31 02:43:25;;;;;;;;;;;;;;;20.69;75.41;101081.66;1855484;75;20186;-74
2021/08/31 02:45:58;;;;;;;;;;;;;;;20.71;75.40;101077.92;1828575;78;20240;-74
2021/08/31 02:48:31;;;;;;;;;;;;;;;20.75;75.44;101083.20;1832154;77;20244;-73
2021/08/31 02:51:03;;;;;;;;;;;;;;;20.76;75.34;101082.61;1858400;77;20266;-75
2021/08/31 02:53:35;;;;;;;;;;;;;;;20.76;75.19;101082.05;1860256;77;20238;-74
2021/08/31 02:56:07;;;;;;;;;;;;;;;20.73;75.18;101086.90;1859348;77;20321;-74
2021/08/31 02:58:40;;;;;;;;;;;;;;;20.71;75.22;101082.72;1859770;77;20257;-73
2021/08/31 03:04:02;;;;;;;;;;;;;;;20.63;75.37;101097.04;1859702;77;20190;-74
2021/08/31 03:06:34;;;;;;;;;;;;;;;20.60;75.49;101095.43;1859688;77;20242;-75
2021/08/31 03:09:06;;;;;;;;;;;;;;;20.62;75.44;101095.38;1860136;76;20561;-76
2021/08/31 03:11:39;;;;;;;;;;;;;;;20.60;75.40;101101.89;1851277;76;20631;-74
2021/08/31 03:14:11;;;;;;;;;;;;;;;20.60;75.38;101096.84;1859325;77;20254;-76
2021/08/31 03:16:44;;;;;;;;;;;;;;;20.57;75.34;101103.10;1834701;77;20244;-74
2021/08/31 03:19:20;;;;;;;;;;;;;;;20.53;75.42;101107.70;1855162;75;20602;-74
2021/08/31 03:21:54;;;;;;;;;;;;;;;20.44;75.50;101108.20;1865322;76;20192;-75
2021/08/31 03:24:27;;;;;;;;;;;;;;;20.40;75.64;101104.33;1831854;77;20174;-76
2021/08/31 03:26:59;;;;;;;;;;;;;;;20.37;75.84;101112.03;1859500;76;20590;-75
2021/08/31 03:29:35;;;;;;;;;;;;;;;20.38;76.00;101113.69;1862112;76;20312;-76
2021/08/31 03:32:07;;;;;;;;;;;;;;;20.42;76.05;101118.98;1859715;75;20276;-74
2021/08/31 03:34:41;;;;;;;;;;;;;;;20.50;75.87;101121.05;1860654;76;20615;-77
2021/08/31 03:37:13;;;;;;;;;;;;;;;20.54;75.53;101117.86;1864495;76;20260;-74
2021/08/31 03:39:44;;;;;;;;;;;;;;;20.56;75.27;101123.45;1865422;76;20233;-75
2021/08/31 03:42:16;;;;;;;;;;;;;;;20.55;75.15;101130.22;1847597;76;20612;-77
2021/08/31 03:44:49;;;;;;;;;;;;;;;20.53;74.99;101135.92;1849118;77;20247;-75
2021/08/31 03:47:21;;;;;;;;;;;;;;;20.50;75.06;101128.95;1848481;77;20247;-76
2021/08/31 03:49:54;;;;;;;;;;;;;;;20.47;75.19;101127.34;1847187;76;20187;-75
2021/08/31 03:52:27;;;;;;;;;;;;;;;20.50;75.29;101139.39;1846592;76;20305;-76
2021/08/31 03:54:59;;;;;;;;;;;;;;;20.51;75.05;101132.59;1840225;77;20187;-75
2021/08/31 03:57:33;;;;;;;;;;;;;;;20.53;75.16;101133.09;1843695;76;20626;-76
2021/08/31 04:00:05;;;;;;;;;;;;;;;20.55;75.18;101140.70;1849008;77;20286;-75
2021/08/31 04:02:38;;;;;;;;;;;;;;;20.52;74.98;101135.10;1849766;77;20276;-77
2021/08/31 04:05:10;;;;;;;;;;;;;;;20.50;74.90;101137.98;1839948;76;20206;-75
2021/08/31 04:07:44;;;;;;;;;;;;;;;20.48;74.76;101138.87;1842558;76;20294;-78
2021/08/31 04:10:17;;;;;;;;;;;;;;;20.43;74.70;101138.98;1842525;77;20216;-75
2021/08/31 04:12:50;;;;;;;;;;;;;;;20.41;74.68;101138.47;1850287;77;20179;-76
2021/08/31 04:15:22;;;;;;;;;;;;;;;20.41;74.56;101137.88;1849064;76;20191;-74
2021/08/31 04:17:54;;;;;;;;;;;;;;;20.44;74.51;101135.01;1844375;76;20263;-83
2021/08/31 04:20:27;;;;;;;;;;;;;;;20.45;74.44;101132.44;1842209;78;20210;-81
2021/08/31 04:22:59;;;;;;;;;;;;;;;20.42;74.27;101139.55;1842169;77;20190;-75
2021/08/31 04:25:32;;;;;;;;;;;;;;;20.44;74.33;101140.65;1842190;78;20271;-81
2021/08/31 04:28:05;;;;;;;;;;;;;;;20.46;74.25;101149.63;1837326;78;20251;-76
2021/08/31 04:30:37;;;;;;;;;;;;;;;20.50;74.30;101147.30;1825319;78;20282;-80
2021/08/31 04:33:10;;;;;;;;;;;;;;;20.55;74.29;101153.39;1820785;78;20251;-74
2021/08/31 04:35:42;;;;;;;;;;;;;;;20.64;74.08;101159.95;1833327;78;20235;-83
2021/08/31 04:38:14;;;;;;;;;;;;;;;20.76;73.80;101154.04;1833923;77;20248;-81
2021/08/31 04:40:47;;;;;;;;;;;;;;;20.95;73.83;101147.69;1836006;77;20248;-74
2021/08/31 04:43:21;;;;;;;;;;;;;;;21.26;73.10;101152.02;1839194;78;20234;-74
2021/08/31 04:45:53;;;;;;;;;;;;;;;21.54;72.20;101154.98;1840814;77;20228;-77
2021/08/31 04:48:25;;;;;;;;;;;;;;;22.00;72.00;101153.47;1859022;77;20189;-75
2021/08/31 04:50:59;;;;;;;;;;;;;;;22.59;70.82;101153.47;1851179;77;20539;-88
2021/08/31 04:53:31;;;;;;;;;;;;;;;23.19;69.26;101145.36;1855686;77;20278;-79
2021/08/31 04:56:03;;;;;;;;;;;;;;;23.72;67.12;101150.64;1855948;76;20249;-75
2021/08/31 04:58:35;;;;;;;;;;;;;;;24.17;65.72;101145.61;1855420;76;20254;-79
2021/08/31 05:01:06;;;;;;;;;;;;;;;24.56;64.15;101150.11;1856973;77;20255;-82
2021/08/31 05:03:38;;;;;;;;;;;;;;;25.03;63.08;101142.54;1857971;77;20254;-79
2021/08/31 05:06:13;;;;;;;;;;;;;;;25.44;61.88;101145.98;1859957;76;20249;-77
2021/08/31 05:08:47;;;;;;;;;;;;;;;25.81;60.36;101150.63;1729971;82;20238;-75
2021/08/31 05:11:21;;;;;;;;;;;;;;;26.24;58.70;101143.88;1720211;82;20674;-75
2021/08/31 05:13:53;;;;;;;;;;;;;;;26.64;57.92;101149.98;1720471;83;20198;-75
2021/08/31 05:16:25;;;;;;;;;;;;;;;26.97;56.56;101150.67;1723542;83;20175;-76
2021/08/31 05:18:59;;;;;;;;;;;;;;;27.32;56.54;101152.40;1721080;83;20195;-77
2021/08/31 05:21:34;;;;;;;;;;;;;;;27.59;55.14;101144.66;1717431;83;20190;-76
2021/08/31 05:24:06;;;;;;;;;;;;;;;27.87;54.65;101140.39;1721862;83;20194;-76
2021/08/31 05:26:38;;;;;;;;;;;;;;;28.19;53.26;101150.06;1761992;77;20180;-74
2021/08/31 05:29:13;;;;;;;;;;;;;;;28.40;52.26;101148.41;1856991;77;20191;-75
2021/08/31 05:31:48;;;;;;;;;;;;;;;28.55;51.88;101148.40;1857668;77;20653;-74
2021/08/31 05:34:20;;;;;;;;;;;;;;;28.72;51.49;101153.74;1858779;77;20584;-74
2021/08/31 05:36:52;;;;;;;;;;;;;;;28.84;50.67;101150.77;1857759;77;20583;-74
2021/08/31 05:39:32;;;;;;;;;;;;;;;28.93;49.72;101154.24;1858322;77;20185;-77
2021/08/31 05:41:58;;;;;;;;;;;;;;;28.92;49.76;101154.64;1852770;77;20254;-75
2021/08/31 05:44:30;;;;;;;;;;;;;;;28.98;49.71;101154.61;1850804;76;20767;-77
2021/08/31 05:47:03;;;;;;;;;;;;;;;29.14;49.21;101155.37;1845047;77;20256;-74
2021/08/31 05:49:36;;;;;;;;;;;;;;;29.25;48.48;101149.30;1818592;77;20259;-78
2021/08/31 05:52:12;;;;;;;;;;;;;;;29.35;48.88;101151.58;1828461;77;20254;-76
2021/08/31 05:54:45;;;;;;;;;;;;;;;29.63;48.30;101149.34;1832845;77;20240;-76
2021/08/31 05:57:18;;;;;;;;;;;;;;;29.81;47.74;101154.24;1826463;77;20247;-76
2021/08/31 05:59:50;;;;;;;;;;;;;;;29.97;47.43;101152.70;1827960;77;20262;-74
2021/08/31 06:02:23;;;;;;;;;;;;;;;30.19;46.68;101164.85;1827377;77;20320;-77
2021/08/31 06:04:55;;;;;;;;;;;;;;;30.30;46.34;101162.39;1826103;77;20361;-79
2021/08/31 06:07:27;;;;;;;;;;;;;;;30.41;46.04;101164.85;1836353;77;20255;-78
2021/08/31 06:09:58;;;;;;;;;;;;;;;30.55;45.27;101160.79;1835151;77;20251;-76
2021/08/31 06:12:30;;;;;;;;;;;;;;;30.73;45.32;101169.72;1845281;77;20281;-77
2021/08/31 06:15:04;;;;;;;;;;;;;;;30.81;44.13;101165.14;1830707;77;20187;-78
2021/08/31 06:17:42;;;;;;;;;;;;;;;30.80;44.73;101166.99;1829651;77;20180;-78
2021/08/31 06:20:12;;;;;;;;;;;;;;;30.86;43.82;101167.69;1831239;77;20552;-76
2021/08/31 06:22:47;;;;;;;;;;;;;;;30.95;43.64;101164.55;1829811;77;20185;-77
2021/08/31 06:25:25;;;;;;;;;;;;;;;30.99;43.92;101169.75;1825825;77;20857;-75
2021/08/31 06:27:58;;;;;;;;;;;;;;;30.92;43.82;101170.45;1841578;77;20223;-77
2021/08/31 06:30:31;;;;;;;;;;;;;;;30.96;43.28;101168.48;1839288;77;20275;-77
2021/08/31 06:33:05;;;;;;;;;;;;;;;30.92;43.59;101173.95;1836466;77;20240;-77
2021/08/31 06:35:38;;;;;;;;;;;;;;;30.84;44.12;101181.61;1823389;77;20614;-77
2021/08/31 06:38:10;;;;;;;;;;;;;;;30.86;44.39;101184.11;1821618;77;20206;-76
2021/08/31 06:40:41;;;;;;;;;;;;;;;30.97;44.77;101183.64;1833988;77;20276;-77
2021/08/31 06:43:13;;;;;;;;;;;;;;;31.10;43.68;101184.48;1844738;77;20613;-74
2021/08/31 06:45:47;;;;;;;;;;;;;;;31.12;43.22;101184.91;1831901;77;20614;-79
2021/08/31 06:48:21;;;;;;;;;;;;;;;31.13;43.83;101185.75;1828699;78;20254;-77
2021/08/31 06:50:54;;;;;;;;;;;;;;;31.23;43.39;101183.70;1805339;78;20189;-77
2021/08/31 06:53:29;;;;;;;;;;;;;;;31.13;43.21;101178.58;1831316;78;20276;-78
2021/08/31 06:56:01;;;;;;;;;;;;;;;31.09;43.28;101181.39;1835095;76;20288;-77
2021/08/31 06:58:32;;;;;;;;;;;;;;;31.08;42.87;101183.21;1844266;78;20249;-76
2021/08/31 07:01:06;;;;;;;;;;;;;;;31.03;43.04;101184.97;1844027;78;20681;-75
2021/08/31 07:03:38;;;;;;;;;;;;;;;31.03;42.28;101183.53;1838114;78;20258;-75
2021/08/31 07:06:12;;;;;;;;;;;;;;;30.96;42.10;101185.70;1832897;78;20280;-73
2021/08/31 07:08:46;;;;;;;;;;;;;;;30.84;41.67;101185.91;1837530;78;20177;-75
2021/08/31 07:11:20;;;;;;;;;;;;;;;30.77;42.93;101194.41;1836896;76;20610;-77
2021/08/31 07:13:52;;;;;;;;;;;;;;;30.73;42.91;101193.52;1830404;78;20648;-77
2021/08/31 07:16:26;;;;;;;;;;;;;;;30.70;43.08;101200.03;1834515;78;20216;-73
2021/08/31 07:18:59;;;;;;;;;;;;;;;30.59;43.42;101191.81;1825188;78;20220;-74
2021/08/31 07:21:31;;;;;;;;;;;;;;;30.52;43.59;101201.73;1831082;78;20183;-75
2021/08/31 07:24:05;;;;;;;;;;;;;;;30.40;44.10;101199.05;1837479;78;20249;-73
2021/08/31 07:26:38;;;;;;;;;;;;;;;30.27;42.83;101204.71;1801149;78;20637;-73
2021/08/31 07:29:09;;;;;;;;;;;;;;;30.02;41.57;101200.50;1835992;78;20544;-75
2021/08/31 07:31:41;;;;;;;;;;;;;;;29.79;42.65;101203.94;1831420;78;20181;-74
2021/08/31 07:34:12;;;;;;;;;;;;;;;29.63;43.66;101198.88;1829513;78;20253;-72
2021/08/31 07:36:45;;;;;;;;;;;;;;;29.55;44.19;101199.94;1833982;78;20248;-73
2021/08/31 07:39:17;;;;;;;;;;;;;;;29.45;43.83;101199.05;1815721;78;20284;-74
2021/08/31 07:41:49;;;;;;;;;;;;;;;29.39;43.72;101196.25;1811120;79;20249;-77
2021/08/31 07:44:21;;;;;;;;;;;;;;;29.33;44.19;101210.64;1811144;78;20555;-75
2021/08/31 07:46:53;;;;;;;;;;;;;;;29.18;44.01;101202.09;1810886;77;20253;-78
2021/08/31 07:49:28;;;;;;;;;;;;;;;29.02;43.30;101197.84;1826849;77;20285;-74
2021/08/31 07:52:03;;;;;;;;;;;;;;;28.97;44.32;101195.25;1846590;76;20186;-74
2021/08/31 07:54:36;;;;;;;;;;;;;;;29.02;44.79;101189.25;1852543;77;20582;-74
2021/08/31 07:57:08;;;;;;;;;;;;;;;29.09;44.57;101188.61;1853871;77;20233;-78
2021/08/31 07:59:42;;;;;;;;;;;;;;;29.08;45.23;101186.92;1838773;77;20285;-74
2021/08/31 08:02:15;;;;;;;;;;;;;;;29.04;44.61;101186.84;1856011;77;20293;-76
2021/08/31 08:04:47;;;;;;;;;;;;;;;28.92;44.34;101188.97;1852795;77;20276;-73
2021/08/31 08:07:19;;;;;;;;;;;;;;;28.87;44.90;101188.63;1849126;76;20252;-73
2021/08/31 08:09:50;;;;;;;;;;;;;;;28.84;45.28;101193.67;1851977;77;20290;-72
2021/08/31 08:12:30;;;;;;;;;;;;;;;28.75;45.33;101188.77;1851617;77;20245;-74
2021/08/31 08:15:05;;;;;;;;;;;;;;;28.56;45.41;101184.36;1847811;77;20253;-73
2021/08/31 08:17:36;;;;;;;;;;;;;;;28.32;45.47;101187.37;1853026;77;20304;-74
2021/08/31 08:20:10;;;;;;;;;;;;;;;28.23;45.89;101181.02;1852696;77;20223;-75
2021/08/31 08:22:42;;;;;;;;;;;;;;;28.23;46.34;101182.44;1848889;77;20247;-71
2021/08/31 08:25:14;;;;;;;;;;;;;;;28.30;46.54;101184.67;1852321;77;20298;-73
2021/08/31 08:27:46;;;;;;;;;;;;;;;28.36;46.29;101183.20;1851733;77;20237;-71
2021/08/31 08:30:17;;;;;;;;;;;;;;;28.45;46.15;101180.42;1853795;77;20612;-73
2021/08/31 08:32:49;;;;;;;;;;;;;;;28.57;45.63;101181.77;1849617;77;20254;-73
2021/08/31 08:35:21;;;;;;;;;;;;;;;28.66;45.43;101180.11;1847427;77;20709;-75
2021/08/31 08:37:53;;;;;;;;;;;;;;;28.69;45.33;101178.80;1850746;77;20249;-74
2021/08/31 08:40:25;;;;;;;;;;;;;;;28.71;45.46;101176.98;1847373;77;20253;-74
2021/08/31 08:42:57;;;;;;;;;;;;;;;28.76;45.56;101171.83;1853228;77;20330;-73
2021/08/31 08:45:28;;;;;;;;;;;;;;;28.87;45.28;101174.94;1852989;77;20639;-73
2021/08/31 08:48:00;;;;;;;;;;;;;;;28.87;44.42;101171.46;1848750;77;20190;-74
2021/08/31 08:50:37;;;;;;;;;;;;;;;28.89;44.05;101171.94;1854145;77;20281;-73
2021/08/31 08:53:06;;;;;;;;;;;;;;;28.91;43.87;101166.67;1825179;77;20512;-71
2021/08/31 08:55:38;;;;;;;;;;;;;;;28.96;44.05;101160.70;1857783;77;20173;-71
2021/08/31 08:58:10;;;;;;;;;;;;;;;28.98;43.48;101157.47;1854725;77;20580;-70
2021/08/31 09:00:53;;;;;;;;;;;;;;;28.93;43.71;101162.02;1840356;77;20871;-71
2021/08/31 09:03:25;;;;;;;;;;;;;;;28.86;42.83;101158.36;1842317;77;20250;-74
2021/08/31 09:06:11;;;;;;;;;;;;;;;28.83;43.03;101153.99;1850406;77;20185;-73
2021/08/31 09:08:55;;;;;;;;;;;;;;;28.81;43.43;101160.08;1849631;77;20201;-73
2021/08/31 09:11:36;;;;;;;;;;;;;;;28.79;43.51;101153.91;1836665;78;20179;-75
2021/08/31 09:14:27;;;;;;;;;;;;;;;28.80;43.78;101161.28;1839275;78;20183;-76
2021/08/31 09:17:06;;;;;;;;;;;;;;;28.69;43.47;101157.36;1839050;78;20564;-76
2021/08/31 09:19:44;;;;;;;;;;;;;;;28.56;43.91;101152.91;1832742;78;20181;-73
2021/08/31 09:22:24;;;;;;;;;;;;;;;28.44;43.98;101153.62;1810041;78;20215;-73
2021/08/31 09:25:00;;;;;;;;;;;;;;;28.40;43.95;101149.25;1768886;80;20251;-76
2021/08/31 09:27:38;;;;;;;;;;;;;;;28.42;44.34;101145.41;1771585;80;20325;-74
2021/08/31 09:30:25;;;;;;;;;;;;;;;28.43;44.34;101147.07;1771966;80;20189;-75
2021/08/31 09:33:08;;;;;;;;;;;;;;;28.39;43.67;101143.89;1772671;80;20199;-78
2021/08/31 09:35:42;;;;;;;;;;;;;;;28.40;43.77;101144.97;1769051;80;20247;-75
2021/08/31 09:38:18;;;;;;;;;;;;;;;28.42;43.32;101143.98;1766839;80;20268;-73
2021/08/31 09:40:53;;;;;;;;;;;;;;;28.41;43.02;101148.05;1756894;82;20180;-74
2021/08/31 09:43:26;;;;;;;;;;;;;;;28.41;43.82;101145.19;1756819;82;20193;-76
2021/08/31 09:45:59;;;;;;;;;;;;;;;28.37;42.25;101139.97;1756870;82;20185;-75
2021/08/31 09:48:31;;;;;;;;;;;;;;;28.35;41.96;101139.48;1756697;82;20252;-75
2021/08/31 09:51:05;;;;;;;;;;;;;;;28.37;42.65;101141.39;1758940;81;20196;-73
2021/08/31 09:53:42;;;;;;;;;;;;;;;28.38;42.60;101139.38;1759425;81;20252;-75
2021/08/31 09:56:15;;;;;;;;;;;;;;;28.34;41.46;101139.26;1759239;81;20216;-77
2021/08/31 09:58:46;;;;;;;;;;;;;;;28.29;40.99;101137.27;1759275;81;20570;-75
2021/08/31 10:01:22;;;;;;;;;;;;;;;28.22;41.51;101137.08;1759510;81;20185;-75
2021/08/31 10:03:54;;;;;;;;;;;;;;;28.16;41.51;101136.53;1776180;81;20253;-75
2021/08/31 10:06:26;;;;;;;;;;;;;;;28.18;42.47;101132.70;1759351;81;20191;-78
2021/08/31 10:08:59;;;;;;;;;;;;;;;28.19;41.95;101134.35;1762187;80;20272;-77
2021/08/31 10:11:31;;;;;;;;;;;;;;;28.26;42.06;101131.67;1837066;77;20244;-78
2021/08/31 10:14:12;;;;;;;;;;;;;;;28.33;42.16;101127.61;1835769;77;20256;-76
2021/08/31 10:16:39;;;;;;;;;;;;;;;28.41;42.72;101120.89;1828541;77;20534;-75
2021/08/31 10:19:14;;;;;;;;;;;;;;;28.46;42.54;101115.48;1842896;77;20180;-77
2021/08/31 10:21:45;;;;;;;;;;;;;;;28.46;42.75;101122.05;1838144;77;20609;-74
2021/08/31 10:24:17;;;;;;;;;;;;;;;28.46;43.08;101121.20;1845095;77;20188;-73
2021/08/31 10:26:48;;;;;;;;;;;;;;;28.38;42.14;101116.52;1842027;77;20312;-75
2021/08/31 10:29:23;;;;;;;;;;;;;;;28.29;43.05;101120.11;1847066;77;20244;-75
2021/08/31 10:31:57;;;;;;;;;;;;;;;28.23;41.78;101115.28;1839239;77;20243;-74
2021/08/31 10:34:34;;;;;;;;;;;;;;;28.21;40.49;101116.27;1823109;77;20302;-74
2021/08/31 10:37:17;;;;;;;;;;;;;;;28.20;41.41;101107.43;1813883;77;20259;-73
2021/08/31 10:39:56;;;;;;;;;;;;;;;28.22;41.83;101106.48;1812780;79;20188;-73
2021/08/31 10:42:34;;;;;;;;;;;;;;;28.22;42.41;101109.93;1812656;78;20188;-74
2021/08/31 10:45:14;;;;;;;;;;;;;;;28.24;41.93;101104.08;1812891;79;20227;-74
2021/08/31 10:47:49;;;;;;;;;;;;;;;28.28;41.60;101112.16;1809824;79;20196;-74
2021/08/31 10:50:30;;;;;;;;;;;;;;;28.32;40.49;101112.25;1810956;78;20196;-72
2021/08/31 10:53:04;;;;;;;;;;;;;;;28.30;39.39;101107.51;1801266;80;20208;-73
2021/08/31 10:55:37;;;;;;;;;;;;;;;28.27;40.06;101115.37;1801532;80;20248;-72
2021/08/31 10:58:10;;;;;;;;;;;;;;;28.23;39.50;101105.28;1801584;80;20228;-73
2021/08/31 11:00:45;;;;;;;;;;;;;;;28.16;40.25;101109.98;1801454;80;20549;-71
2021/08/31 11:03:20;;;;;;;;;;;;;;;28.11;40.76;101105.95;1801345;80;20192;-71
2021/08/31 11:05:52;;;;;;;;;;;;;;;28.05;41.45;101098.27;1799117;78;20233;-72
2021/08/31 11:08:23;;;;;;;;;;;;;;;28.00;41.90;101094.25;1822885;78;20272;-73
2021/08/31 11:10:55;;;;;;;;;;;;;;;27.99;41.80;101103.19;1846441;78;20267;-74
2021/08/31 11:13:26;;;;;;;;;;;;;;;27.97;40.48;101099.29;1844317;78;20258;-73
2021/08/31 11:15:59;;;;;;;;;;;;;;;28.01;41.70;101100.20;1844078;78;20245;-72
2021/08/31 11:18:34;;;;;;;;;;;;;;;28.05;40.32;101096.00;1843963;78;20185;-73
2021/08/31 11:21:06;;;;;;;;;;;;;;;28.07;41.37;101094.44;1841466;78;20248;-72
2021/08/31 11:23:37;;;;;;;;;;;;;;;28.09;41.46;101093.49;1844023;78;20241;-73
2021/08/31 11:26:08;;;;;;;;;;;;;;;28.09;40.04;101098.36;1843965;78;20553;-72
2021/08/31 11:28:40;;;;;;;;;;;;;;;28.03;39.29;101112.11;1844151;78;20221;-73
2021/08/31 11:31:13;;;;;;;;;;;;;;;27.96;38.50;101101.08;1844086;78;20177;-73
2021/08/31 11:33:44;;;;;;;;;;;;;;;27.90;38.86;101096.83;1844014;78;20610;-74
2021/08/31 11:36:17;;;;;;;;;;;;;;;27.87;38.80;101100.41;1844648;77;20171;-73
2021/08/31 11:38:53;;;;;;;;;;;;;;;27.88;39.29;101100.05;1845876;77;20597;-74
2021/08/31 11:41:36;;;;;;;;;;;;;;;27.87;39.67;101099.82;1840987;78;20642;-75
2021/08/31 11:44:17;;;;;;;;;;;;;;;27.86;38.83;101098.17;1829279;78;20617;-72
2021/08/31 11:46:50;;;;;;;;;;;;;;;27.85;40.07;101101.37;1841281;77;20576;-71
2021/08/31 11:49:23;;;;;;;;;;;;;;;27.85;40.40;101092.23;1854609;77;20249;-73
2021/08/31 11:52:06;;;;;;;;;;;;;;;27.88;41.55;101092.91;1839610;77;20256;-72
2021/08/31 11:54:43;;;;;;;;;;;;;;;27.92;40.15;101088.13;1849789;77;20576;-72
2021/08/31 11:57:19;;;;;;;;;;;;;;;27.98;39.01;101082.96;1816401;77;20260;-71
2021/08/31 11:59:52;;;;;;;;;;;;;;;28.01;39.12;101081.63;1843284;77;20258;-71
2021/08/31 12:02:27;;;;;;;;;;;;;;;28.08;39.62;101083.85;1849759;77;20259;-74
2021/08/31 12:05:06;;;;;;;;;;;;;;;28.17;39.50;101087.34;1836188;77;20268;-73
2021/08/31 12:07:40;;;;;;;;;;;;;;;28.25;39.13;101084.92;1846815;77;20208;-71
2021/08/31 12:10:13;;;;;;;;;;;;;;;28.32;40.16;101081.61;1848336;77;20597;-72
2021/08/31 12:12:45;;;;;;;;;;;;;;;28.36;39.58;101081.15;1852912;77;20184;-75
2021/08/31 12:15:17;;;;;;;;;;;;;;;28.39;39.31;101078.99;1843693;77;20278;-75
2021/08/31 12:17:51;;;;;;;;;;;;;;;28.42;39.16;101084.58;1842516;77;20584;-73
2021/08/31 12:20:26;;;;;;;;;;;;;;;28.44;39.05;101090.13;1844804;77;20230;-72
2021/08/31 12:23:02;;;;;;;;;;;;;;;28.48;39.57;101093.91;1850434;77;20174;-72
2021/08/31 12:25:48;;;;;;;;;;;;;;;28.49;39.68;101084.13;1850454;77;20599;-73
2021/08/31 12:28:20;;;;;;;;;;;;;;;28.50;39.55;101084.34;1849874;77;20262;-73
2021/08/31 12:30:52;;;;;;;;;;;;;;;28.50;38.55;101090.69;1848652;77;20199;-72
2021/08/31 12:33:26;;;;;;;;;;;;;;;28.46;38.41;101080.59;1840793;77;20278;-72
2021/08/31 12:36:06;;;;;;;;;;;;;;;28.41;38.03;101088.61;1848308;77;20550;-72
2021/08/31 12:38:43;;;;;;;;;;;;;;;28.37;38.67;101089.14;1849909;77;20264;-73
2021/08/31 12:41:22;;;;;;;;;;;;;;;28.27;38.27;101089.07;1842948;77;20262;-74
2021/08/31 12:44:02;;;;;;;;;;;;;;;28.17;38.18;101082.47;1839824;77;20243;-74
2021/08/31 12:46:29;;;;;;;;;;;;;;;28.09;38.25;101077.78;1855163;77;20272;-74
2021/08/31 12:49:04;;;;;;;;;;;;;;;28.01;38.21;101083.05;1846306;77;20187;-74
2021/08/31 12:51:44;;;;;;;;;;;;;;;27.89;38.47;101081.70;1845410;77;20256;-73
2021/08/31 12:54:27;;;;;;;;;;;;;;;27.78;38.97;101079.19;1811382;79;20297;-74
2021/08/31 12:57:03;;;;;;;;;;;;;;;27.69;39.34;101071.34;1783317;80;20254;-75
2021/08/31 12:59:39;;;;;;;;;;;;;;;27.61;39.44;101069.50;1794250;79;20211;-75
2021/08/31 13:02:12;;;;;;;;;;;;;;;27.55;38.68;101070.95;1805313;79;20213;-74
2021/08/31 13:04:55;;;;;;;;;;;;;;;27.46;40.06;101071.70;1811025;79;20261;-75
2021/08/31 13:07:31;;;;;;;;;;;;;;;27.39;39.26;101067.22;1803897;79;20663;-75
2021/08/31 13:10:03;;;;;;;;;;;;;;;27.34;39.40;101068.91;1801800;79;20258;-75
2021/08/31 13:12:36;;;;;;;;;;;;;;;27.33;38.97;101072.73;1803392;79;20546;-77